Etusivu
METAR-TAF:

METAR-TAF

Lentoasemat :

Tachikawa, Japani

Leveyspiiri: 35-42N, Pituuspiiri: 139-24E, korkeus merenpinnasta: 95 m

Tämänhetkinen sää

Tämä raportti tehtiin 8 tuntia ja 11 minuuttia sitten, kello 05.36 UTC
Tuuli 3 kn etelästä, vaihdellen idän ja lounaan välillä
Lämpötila 24°C
Kosteus 61%
Ilmanpaine 1001 hPa
Näkyvyys 10 km tai enemmän
Muutamia pilviä 2000 ft:n korkeudessa
Hajanaisia pilviä 2500 ft:n korkeudessa
Hajonneita pilviä 12000 ft:n korkeudessa

METAR: RJTC 250536Z 17003KT 100V220 9999 FEW020 SCT025 BKN120 24/16 Q1001 RMK 2CU020 4CU025 5AC120 A2957

Aika: 22:47 (13:47 UTC)


TAF: puuttuu

Säähavainnot ja -ennusteet yli 4000 lentoasemalta (METAR- ja TAF-raportit).

Käytössä olevat sääasemat on merkitty karttaan keltaisilla ja punaisilla pisteillä.

Aseta hiiri pisteen päälle nähdäksesi sääaseman nimen.

Klikkaa sitten nähdäksesi säähavainnot ja -ennusteet.

Kartan vaihtaminen: klikkaa mustalla rastilla varustettuja vihreitä pisteitä, niin voit zoomata sisään; viivalla varustettua vihreää pistettä, niin voit zoomata ulos tai vihreitä nuolia, niin pääset viereisille kartoille.


METAR-TAF: